createdAt,value
2022-11-30T00:01:21.711Z,310.03
2022-11-30T00:03:48.897Z,457.23
2022-11-30T00:06:22.826Z,287.37
2022-11-30T00:08:54.193Z,481.13
2022-11-30T00:11:22.472Z,385.00
2022-11-30T00:13:49.526Z,317.03
2022-11-30T00:16:16.255Z,350.17
2022-11-30T00:18:43.081Z,423.40
2022-11-30T00:21:12.746Z,517.87
2022-11-30T00:23:42.020Z,224.07
2022-11-30T00:26:10.841Z,526.70
2022-11-30T00:28:38.341Z,313.67
2022-11-30T00:31:08.345Z,337.83
2022-11-30T00:33:37.349Z,585.57
2022-11-30T00:36:06.836Z,561.93
2022-11-30T00:38:34.229Z,491.93
2022-11-30T00:41:01.421Z,622.43
2022-11-30T00:43:28.654Z,320.57
2022-11-30T00:45:56.930Z,308.97
2022-11-30T00:48:23.557Z,641.63
2022-11-30T00:50:51.015Z,391.43
2022-11-30T00:53:18.582Z,408.27
2022-11-30T00:55:45.928Z,530.67
2022-11-30T00:58:13.065Z,349.37
2022-11-30T01:00:41.568Z,329.93
2022-11-30T01:03:09.208Z,452.63
2022-11-30T01:05:36.700Z,634.43
2022-11-30T01:08:05.355Z,359.47
2022-11-30T01:10:33.595Z,427.57
2022-11-30T01:13:00.333Z,645.33
2022-11-30T01:15:27.009Z,509.10
2022-11-30T01:17:53.789Z,627.70
2022-11-30T01:20:20.516Z,270.73
2022-11-30T01:22:47.163Z,554.43
2022-11-30T01:25:13.886Z,667.00
2022-11-30T01:27:40.641Z,452.37
2022-11-30T01:30:08.085Z,397.80
2022-11-30T01:32:34.838Z,416.40
2022-11-30T01:35:01.555Z,409.77
2022-11-30T01:37:29.962Z,764.00
2022-11-30T01:39:56.731Z,238.97
2022-11-30T01:42:23.352Z,592.23
2022-11-30T01:45:00.769Z,515.97
2022-11-30T01:47:37.389Z,551.30
2022-11-30T01:50:16.298Z,545.80
2022-11-30T01:52:50.567Z,346.00
2022-11-30T01:55:37.773Z,416.63
2022-11-30T01:58:09.543Z,296.50
2022-11-30T02:00:36.160Z,352.43
2022-11-30T02:03:06.631Z,252.33
2022-11-30T02:05:38.209Z,488.60
2022-11-30T02:08:06.009Z,590.63
2022-11-30T02:10:36.253Z,500.07
2022-11-30T02:13:02.836Z,353.80
2022-11-30T02:15:36.039Z,272.03
2022-11-30T02:18:10.240Z,424.57
2022-11-30T02:20:58.751Z,600.10
2022-11-30T02:23:56.519Z,434.90
2022-11-30T02:26:51.493Z,344.80
2022-11-30T02:29:37.688Z,478.73
2022-11-30T02:32:14.399Z,235.30
2022-11-30T02:34:45.036Z,520.97
2022-11-30T02:37:14.476Z,245.57
2022-11-30T02:39:42.103Z,411.80
2022-11-30T02:42:15.158Z,479.67
2022-11-30T02:44:45.159Z,503.53
2022-11-30T02:47:32.224Z,526.13
2022-11-30T02:50:19.992Z,496.73
2022-11-30T02:52:47.197Z,512.17
2022-11-30T02:55:17.358Z,381.67
2022-11-30T02:57:44.545Z,227.03
2022-11-30T03:00:12.915Z,513.67
2022-11-30T03:02:40.150Z,230.13
2022-11-30T03:05:08.332Z,361.23
2022-11-30T03:07:35.065Z,420.33
2022-11-30T03:10:01.881Z,322.30
2022-11-30T03:12:29.299Z,365.47
2022-11-30T03:14:55.888Z,220.53
2022-11-30T03:17:22.545Z,229.60
2022-11-30T03:19:49.137Z,249.03
2022-11-30T03:22:15.804Z,373.93
2022-11-30T03:24:42.394Z,370.67
2022-11-30T03:27:08.996Z,366.93
2022-11-30T03:29:35.610Z,139.90
2022-11-30T03:32:02.228Z,182.63
2022-11-30T03:34:28.895Z,232.73
2022-11-30T03:36:55.862Z,134.53
2022-11-30T03:39:23.439Z,159.83
2022-11-30T03:41:50.479Z,321.37
2022-11-30T03:44:17.499Z,147.07
2022-11-30T03:46:44.302Z,279.23
2022-11-30T03:49:10.913Z,147.17
2022-11-30T03:51:37.626Z,197.20
2022-11-30T03:54:04.343Z,112.67
2022-11-30T03:56:31.081Z,266.27
2022-11-30T03:58:57.796Z,179.90
2022-11-30T04:01:24.724Z,281.97
2022-11-30T04:03:52.417Z,217.73
2022-11-30T04:06:20.054Z,217.93
2022-11-30T04:08:47.235Z,420.23
2022-11-30T04:11:14.589Z,175.03
2022-11-30T04:13:42.563Z,288.50
2022-11-30T04:16:09.412Z,253.63
2022-11-30T04:18:36.893Z,151.33
2022-11-30T04:21:04.718Z,404.93
2022-11-30T04:23:38.416Z,206.93
2022-11-30T04:26:06.955Z,520.50
2022-11-30T04:28:34.469Z,273.30
2022-11-30T04:31:02.513Z,484.67
2022-11-30T04:33:30.279Z,252.97
2022-11-30T04:35:59.965Z,372.80
2022-11-30T04:38:27.308Z,222.23
2022-11-30T04:40:54.408Z,137.53
2022-11-30T04:43:21.371Z,275.50
2022-11-30T04:45:48.670Z,239.27
2022-11-30T04:48:16.983Z,432.33
2022-11-30T04:50:43.784Z,372.77
2022-11-30T04:53:10.828Z,197.07
2022-11-30T04:55:38.181Z,312.03
2022-11-30T04:58:05.520Z,320.30
2022-11-30T05:00:32.948Z,192.20
2022-11-30T05:02:59.955Z,234.60
2022-11-30T05:05:26.977Z,455.50
2022-11-30T05:07:58.315Z,329.17
2022-11-30T05:10:25.977Z,512.50
2022-11-30T05:12:53.064Z,270.43
2022-11-30T05:15:20.082Z,305.73
2022-11-30T05:17:46.736Z,362.33
2022-11-30T05:20:13.388Z,315.57
2022-11-30T05:22:40.314Z,417.67
2022-11-30T05:25:07.926Z,270.57
2022-11-30T05:27:35.257Z,598.63
2022-11-30T05:30:02.104Z,357.20
2022-11-30T05:32:28.737Z,612.90
2022-11-30T05:34:55.792Z,278.70
2022-11-30T05:37:22.595Z,364.23
2022-11-30T05:39:49.314Z,487.07
2022-11-30T05:42:15.993Z,519.30
2022-11-30T05:44:42.983Z,229.50
2022-11-30T05:47:09.697Z,561.40
2022-11-30T05:49:36.386Z,419.80
2022-11-30T05:52:03.032Z,272.40
2022-11-30T05:54:29.596Z,240.47
2022-11-30T05:56:56.269Z,230.60
2022-11-30T05:59:23.209Z,226.57
2022-11-30T06:01:52.514Z,135.53
2022-11-30T06:04:19.352Z,170.60
2022-11-30T06:06:46.196Z,182.50
2022-11-30T06:09:12.841Z,137.33
2022-11-30T06:11:39.728Z,136.53
2022-11-30T06:14:06.462Z,144.23
2022-11-30T06:16:33.230Z,124.93
2022-11-30T06:18:59.876Z,149.00
2022-11-30T06:21:26.475Z,154.57
2022-11-30T06:23:53.107Z,162.70
2022-11-30T06:26:19.713Z,168.23
2022-11-30T06:28:48.391Z,177.33
2022-11-30T06:31:16.444Z,182.57
2022-11-30T06:33:43.339Z,188.13
2022-11-30T06:36:10.454Z,169.27
2022-11-30T06:38:37.265Z,168.63
2022-11-30T06:41:09.019Z,181.23
2022-11-30T06:43:37.054Z,155.10
2022-11-30T06:46:05.343Z,163.10
2022-11-30T06:48:32.554Z,162.87
2022-11-30T06:51:00.251Z,150.27
2022-11-30T06:53:27.559Z,153.83
2022-11-30T06:55:54.183Z,154.43
2022-11-30T06:58:20.826Z,160.53
2022-11-30T07:00:47.576Z,176.77
2022-11-30T07:03:14.612Z,164.07
2022-11-30T07:05:43.952Z,158.27
2022-11-30T07:08:11.552Z,172.37
2022-11-30T07:10:45.968Z,177.97
2022-11-30T07:13:14.504Z,164.17
2022-11-30T07:15:42.067Z,180.17
2022-11-30T07:18:09.545Z,141.30
2022-11-30T07:20:37.085Z,144.07
2022-11-30T07:23:23.113Z,147.37
2022-11-30T07:26:09.422Z,130.53
2022-11-30T07:28:41.273Z,122.57
2022-11-30T07:31:21.835Z,136.10
2022-11-30T07:33:49.575Z,144.10
2022-11-30T07:36:18.561Z,137.00
2022-11-30T07:38:45.690Z,127.23
2022-11-30T07:41:13.169Z,122.33
2022-11-30T07:43:40.576Z,126.23
2022-11-30T07:46:07.716Z,119.57
2022-11-30T07:48:35.121Z,115.50
2022-11-30T07:51:06.359Z,102.13
2022-11-30T07:53:33.055Z,99.97
2022-11-30T07:56:11.252Z,108.70
2022-11-30T07:58:38.431Z,123.70
2022-11-30T08:01:08.092Z,113.63
2022-11-30T08:03:37.236Z,104.73
2022-11-30T08:06:07.177Z,108.23
2022-11-30T08:08:36.026Z,95.23
2022-11-30T08:11:03.493Z,105.33
2022-11-30T08:13:30.849Z,97.40
2022-11-30T08:16:06.194Z,90.03
2022-11-30T08:18:32.840Z,77.60
2022-11-30T08:21:00.977Z,89.53
2022-11-30T08:23:32.516Z,85.83
2022-11-30T08:26:07.675Z,74.87
2022-11-30T08:28:37.108Z,80.17
2022-11-30T08:31:09.900Z,66.33
2022-11-30T08:33:37.557Z,59.47
2022-11-30T08:36:17.417Z,59.60
2022-11-30T08:38:45.367Z,63.23
2022-11-30T08:41:14.150Z,58.33
2022-11-30T08:43:41.255Z,58.70
2022-11-30T08:46:34.803Z,52.03
2022-11-30T08:49:12.890Z,54.97
2022-11-30T08:52:15.478Z,55.60
2022-11-30T08:54:30.411Z,50.30
2022-11-30T08:56:57.089Z,52.23
2022-11-30T08:59:23.729Z,58.60
2022-11-30T09:01:50.355Z,60.30
2022-11-30T09:04:16.968Z,58.07
2022-11-30T09:06:43.562Z,51.90
2022-11-30T09:09:10.181Z,49.40
2022-11-30T09:11:36.858Z,55.03
2022-11-30T09:14:04.761Z,48.90
2022-11-30T09:16:31.677Z,54.93
2022-11-30T09:18:58.408Z,53.23
2022-11-30T09:21:25.546Z,50.33
2022-11-30T09:23:55.169Z,46.50
2022-11-30T09:26:23.837Z,55.83
2022-11-30T09:28:51.236Z,57.50
2022-11-30T09:31:20.257Z,60.30
2022-11-30T09:33:47.752Z,58.93
2022-11-30T09:36:17.107Z,61.10
2022-11-30T09:38:43.770Z,59.30
2022-11-30T09:41:28.640Z,61.77
2022-11-30T09:44:24.474Z,58.83
2022-11-30T09:47:09.027Z,68.00
2022-11-30T09:49:40.683Z,60.43
2022-11-30T09:52:26.179Z,59.90
2022-11-30T09:54:53.979Z,64.53
2022-11-30T09:57:39.461Z,60.60
2022-11-30T10:00:16.055Z,61.30
2022-11-30T10:02:43.509Z,61.17
2022-11-30T10:05:26.795Z,58.90
2022-11-30T10:08:31.158Z,63.17
2022-11-30T10:11:36.841Z,61.37
2022-11-30T10:14:35.292Z,54.13
2022-11-30T10:17:17.433Z,59.00
2022-11-30T10:20:06.280Z,64.17
2022-11-30T10:22:58.835Z,57.10
2022-11-30T10:25:38.713Z,63.37
2022-11-30T10:28:48.165Z,61.63
2022-11-30T10:31:16.224Z,59.10
2022-11-30T10:33:54.281Z,57.27
2022-11-30T10:36:33.157Z,57.23
2022-11-30T10:39:20.213Z,57.97
2022-11-30T10:41:54.200Z,61.30
2022-11-30T10:44:43.280Z,64.40
2022-11-30T10:47:26.516Z,61.13
2022-11-30T10:49:53.408Z,64.50
2022-11-30T10:52:25.566Z,59.00
2022-11-30T10:54:59.091Z,63.67
2022-11-30T10:57:31.904Z,58.80
2022-11-30T11:00:02.319Z,61.97
2022-11-30T11:02:40.234Z,60.00
2022-11-30T11:05:17.568Z,60.73
2022-11-30T11:08:06.450Z,64.57
2022-11-30T11:10:45.095Z,60.80
2022-11-30T11:13:38.279Z,65.03
2022-11-30T11:16:07.508Z,62.43
2022-11-30T11:18:35.949Z,65.60
2022-11-30T11:21:16.483Z,67.30
2022-11-30T11:23:44.672Z,66.87
2022-11-30T11:26:28.712Z,74.50
2022-11-30T11:29:01.323Z,64.70
2022-11-30T11:31:44.217Z,73.03
2022-11-30T11:34:35.598Z,67.67
2022-11-30T11:37:18.243Z,64.37
2022-11-30T11:40:15.917Z,79.27
2022-11-30T11:42:47.333Z,67.77
2022-11-30T11:45:21.085Z,67.60
2022-11-30T11:47:58.855Z,63.57
2022-11-30T11:53:35.200Z,64.80
2022-11-30T11:56:15.447Z,73.53
2022-11-30T11:59:00.607Z,66.07
2022-11-30T12:02:03.760Z,66.07
2022-11-30T12:04:30.405Z,66.03
2022-11-30T12:07:01.109Z,69.27
2022-11-30T12:09:50.335Z,65.40
2022-11-30T12:12:16.945Z,66.63
2022-11-30T12:14:43.564Z,67.90
2022-11-30T12:17:25.333Z,69.33
2022-11-30T12:20:13.980Z,64.20
2022-11-30T12:22:43.622Z,62.10
2022-11-30T12:25:27.643Z,60.50
2022-11-30T12:28:05.846Z,56.70
2022-11-30T12:30:45.592Z,70.50
2022-11-30T12:33:17.994Z,60.47
2022-11-30T12:35:56.107Z,59.80
2022-11-30T12:38:33.239Z,62.50
2022-11-30T12:41:10.973Z,69.03
2022-11-30T12:43:52.388Z,64.97
2022-11-30T12:46:38.044Z,68.87
2022-11-30T12:49:25.839Z,63.67
2022-11-30T12:52:20.861Z,64.43
2022-11-30T12:55:18.262Z,71.23
2022-11-30T12:58:12.714Z,64.40
2022-11-30T13:01:17.270Z,65.70
2022-11-30T13:04:18.132Z,62.10
2022-11-30T13:06:48.640Z,61.03
2022-11-30T13:09:32.791Z,59.10
2022-11-30T13:12:07.399Z,63.10
2022-11-30T13:14:35.184Z,71.13
2022-11-30T13:17:07.293Z,62.90
2022-11-30T13:19:44.319Z,65.40
2022-11-30T13:22:42.691Z,59.77
2022-11-30T13:25:59.695Z,59.23
2022-11-30T13:28:40.498Z,69.70
2022-11-30T13:31:19.900Z,57.07
2022-11-30T13:33:53.708Z,64.67
2022-11-30T13:36:34.458Z,60.47
2022-11-30T13:39:22.023Z,64.80
2022-11-30T13:41:53.236Z,62.43
2022-11-30T13:44:31.023Z,57.77
2022-11-30T13:46:58.718Z,56.83
2022-11-30T13:49:35.964Z,59.50
2022-11-30T13:52:23.556Z,64.33
2022-11-30T13:54:57.102Z,65.33
2022-11-30T13:57:30.461Z,60.00
2022-11-30T14:00:02.261Z,55.73
2022-11-30T14:02:32.174Z,60.33
2022-11-30T14:05:17.285Z,57.47
2022-11-30T14:08:00.580Z,54.10
2022-11-30T14:10:32.540Z,58.97
2022-11-30T14:13:02.115Z,54.40
2022-11-30T14:15:41.668Z,50.50
2022-11-30T14:18:08.232Z,59.83
2022-11-30T14:20:40.416Z,48.90
2022-11-30T14:23:11.924Z,55.40
2022-11-30T14:25:44.845Z,53.30
2022-11-30T14:28:16.113Z,57.93
2022-11-30T14:30:44.141Z,57.87
2022-11-30T14:33:25.266Z,61.03
2022-11-30T14:35:56.948Z,56.50
2022-11-30T14:38:31.195Z,57.73
2022-11-30T14:40:58.555Z,52.70
2022-11-30T14:43:25.297Z,50.47
2022-11-30T14:46:09.140Z,55.77
2022-11-30T14:48:38.385Z,51.40
2022-11-30T14:51:05.118Z,49.87
2022-11-30T14:53:52.519Z,44.73
2022-11-30T14:56:42.630Z,50.50
2022-11-30T14:59:47.008Z,49.20
2022-11-30T15:02:19.608Z,52.37
2022-11-30T15:04:48.684Z,54.57
2022-11-30T15:07:16.202Z,51.60
2022-11-30T15:09:46.487Z,50.07
2022-11-30T15:12:24.769Z,47.97
2022-11-30T15:15:26.314Z,45.60
2022-11-30T15:17:56.957Z,42.30
2022-11-30T15:20:37.409Z,48.17
2022-11-30T15:23:04.100Z,48.07
2022-11-30T15:25:46.702Z,39.53
2022-11-30T15:28:23.808Z,43.97
2022-11-30T15:30:56.427Z,42.90
2022-11-30T15:33:26.802Z,42.47
2022-11-30T15:36:18.642Z,39.60
2022-11-30T15:38:47.454Z,43.57
2022-11-30T15:41:18.632Z,42.23
2022-11-30T15:43:52.595Z,42.23
2022-11-30T15:46:46.013Z,45.30
2022-11-30T15:49:17.630Z,45.37
2022-11-30T15:51:47.064Z,37.60
2022-11-30T15:54:15.223Z,37.40
2022-11-30T15:56:54.148Z,35.87
2022-11-30T15:59:23.700Z,36.10
2022-11-30T16:02:04.529Z,36.33
2022-11-30T16:04:56.291Z,46.77
2022-11-30T16:07:29.831Z,38.90
2022-11-30T16:10:07.778Z,41.80
2022-11-30T16:12:34.448Z,48.43
2022-11-30T16:15:16.383Z,38.03
2022-11-30T16:17:43.080Z,39.37
2022-11-30T16:20:13.737Z,32.77
2022-11-30T16:22:45.321Z,33.87
2022-11-30T16:25:21.333Z,67.07
2022-11-30T16:27:48.846Z,53.20
2022-11-30T16:30:18.181Z,71.20
2022-11-30T16:32:45.516Z,38.97
2022-11-30T16:35:25.860Z,32.30
2022-11-30T16:37:52.530Z,40.90
2022-11-30T16:40:21.005Z,28.37
2022-11-30T16:42:50.602Z,44.50
2022-11-30T16:45:22.997Z,46.00
2022-11-30T16:47:50.789Z,32.50
2022-11-30T16:50:18.821Z,33.47
2022-11-30T16:52:46.064Z,28.17
2022-11-30T16:55:14.761Z,42.50
2022-11-30T16:57:41.975Z,32.80
2022-11-30T17:00:11.062Z,38.67
2022-11-30T17:02:42.658Z,32.60
2022-11-30T17:05:13.705Z,25.93
2022-11-30T17:07:40.784Z,25.77
2022-11-30T17:10:08.417Z,32.80
2022-11-30T17:12:38.449Z,28.23
2022-11-30T17:15:05.898Z,38.90
2022-11-30T17:17:32.659Z,32.10
2022-11-30T17:19:59.306Z,23.27
2022-11-30T17:22:25.879Z,24.90
2022-11-30T17:24:52.575Z,21.50
2022-11-30T17:27:19.145Z,17.90
2022-11-30T17:29:45.813Z,27.97
2022-11-30T17:32:12.401Z,24.80
2022-11-30T17:34:39.434Z,16.10
2022-11-30T17:37:06.067Z,16.07
2022-11-30T17:39:32.675Z,19.87
2022-11-30T17:41:59.331Z,18.37
2022-11-30T17:44:26.358Z,17.00
2022-11-30T17:46:52.940Z,15.53
2022-11-30T17:49:19.655Z,15.53
2022-11-30T17:51:46.335Z,19.07
2022-11-30T17:54:13.127Z,14.60
2022-11-30T17:56:40.839Z,17.03
2022-11-30T17:59:07.455Z,13.53
2022-11-30T18:01:34.088Z,14.80
2022-11-30T18:04:00.946Z,16.67
2022-11-30T18:06:28.462Z,18.93
2022-11-30T18:08:57.444Z,18.97
2022-11-30T18:11:27.451Z,21.30
2022-11-30T18:13:56.016Z,20.63
2022-11-30T18:16:25.198Z,19.43
2022-11-30T18:18:52.889Z,14.83
2022-11-30T18:21:21.824Z,22.40
2022-11-30T18:23:49.519Z,22.20
2022-11-30T18:26:18.697Z,17.90
2022-11-30T18:28:46.483Z,16.67
2022-11-30T18:31:13.359Z,21.17
2022-11-30T18:33:40.185Z,18.00
2022-11-30T18:36:07.903Z,18.27
2022-11-30T18:38:37.924Z,21.40
2022-11-30T18:41:05.851Z,21.37
2022-11-30T18:43:33.649Z,20.00
2022-11-30T18:46:08.768Z,17.30
2022-11-30T18:48:35.985Z,20.40
2022-11-30T18:51:30.401Z,18.10
2022-11-30T18:54:05.611Z,21.73
2022-11-30T18:56:35.083Z,22.00
2022-11-30T18:59:04.727Z,25.37
2022-11-30T19:01:32.350Z,17.57
2022-11-30T19:04:02.322Z,22.13
2022-11-30T19:06:29.740Z,22.97
2022-11-30T19:08:58.797Z,23.77
2022-11-30T19:11:25.943Z,27.47
2022-11-30T19:13:56.884Z,24.00
2022-11-30T19:16:24.704Z,25.37
2022-11-30T19:18:52.360Z,26.73
2022-11-30T19:21:20.556Z,22.53
2022-11-30T19:23:48.108Z,25.57
2022-11-30T19:26:15.235Z,27.10
2022-11-30T19:28:43.532Z,26.07
2022-11-30T19:31:12.689Z,26.90
2022-11-30T19:33:40.713Z,29.80
2022-11-30T19:36:10.610Z,25.57
2022-11-30T19:38:37.305Z,24.27
2022-11-30T19:41:08.515Z,26.50
2022-11-30T19:43:36.115Z,24.80
2022-11-30T19:46:08.315Z,30.80
2022-11-30T19:48:35.414Z,29.17
2022-11-30T19:51:07.483Z,31.57
2022-11-30T19:53:34.791Z,28.27
2022-11-30T19:56:10.143Z,27.67
2022-11-30T19:58:36.732Z,29.57
2022-11-30T20:01:04.931Z,30.63
2022-11-30T20:03:35.553Z,32.90
2022-11-30T20:06:03.143Z,25.47
2022-11-30T20:08:30.032Z,27.80
2022-11-30T20:10:56.743Z,26.53
2022-11-30T20:13:23.987Z,27.67
2022-11-30T20:15:50.661Z,28.93
2022-11-30T20:18:17.309Z,25.33
2022-11-30T20:20:44.266Z,32.77
2022-11-30T20:23:10.873Z,42.27
2022-11-30T20:25:37.520Z,39.13
2022-11-30T20:28:08.218Z,32.37
2022-11-30T20:30:37.815Z,33.40
2022-11-30T20:33:04.448Z,32.77
2022-11-30T20:35:31.289Z,36.40
2022-11-30T20:37:58.235Z,34.90
2022-11-30T20:40:24.815Z,43.33
2022-11-30T20:42:52.605Z,32.20
2022-11-30T20:45:19.207Z,27.60
2022-11-30T20:47:45.796Z,29.60
2022-11-30T20:50:12.501Z,28.00
2022-11-30T20:52:39.111Z,29.10
2022-11-30T20:55:06.032Z,21.20
2022-11-30T20:57:32.965Z,21.60
2022-11-30T20:59:59.596Z,24.20
2022-11-30T21:02:26.338Z,24.50
2022-11-30T21:04:53.242Z,19.17
2022-11-30T21:07:19.853Z,17.20
2022-11-30T21:09:46.558Z,20.83
2022-11-30T21:12:13.139Z,20.43
2022-11-30T21:14:39.844Z,21.07
2022-11-30T21:17:06.446Z,19.20
2022-11-30T21:19:33.605Z,18.23
2022-11-30T21:22:00.224Z,16.23
2022-11-30T21:24:26.822Z,15.63
2022-11-30T21:26:53.449Z,14.47
2022-11-30T21:29:20.253Z,16.87
2022-11-30T21:31:46.994Z,16.23
2022-11-30T21:34:13.915Z,15.67
2022-11-30T21:36:40.567Z,12.57
2022-11-30T21:39:08.193Z,15.83
2022-11-30T21:41:37.325Z,13.27
2022-11-30T21:44:05.536Z,13.37
2022-11-30T21:46:32.869Z,16.20
2022-11-30T21:48:59.910Z,16.80
2022-11-30T21:51:28.442Z,13.90
2022-11-30T21:53:58.161Z,15.60
2022-11-30T21:56:27.108Z,12.13
2022-11-30T21:58:53.912Z,10.30
2022-11-30T22:01:29.362Z,11.70
2022-11-30T22:03:58.153Z,11.07
2022-11-30T22:06:26.804Z,9.70
2022-11-30T22:08:55.457Z,11.57
2022-11-30T22:11:23.385Z,12.23
2022-11-30T22:13:51.762Z,11.10
2022-11-30T22:16:19.290Z,8.50
2022-11-30T22:18:46.742Z,10.07
2022-11-30T22:21:19.271Z,9.63
2022-11-30T22:23:49.131Z,10.77
2022-11-30T22:26:21.478Z,10.73
2022-11-30T22:29:03.807Z,9.83
2022-11-30T22:31:34.326Z,9.37
2022-11-30T22:34:01.262Z,9.53
2022-11-30T22:36:30.872Z,10.73
2022-11-30T22:39:11.043Z,10.93
2022-11-30T22:41:38.515Z,9.73
2022-11-30T22:44:05.336Z,8.20
2022-11-30T22:46:35.025Z,7.37
2022-11-30T22:49:04.116Z,8.70
2022-11-30T22:51:32.955Z,8.37
2022-11-30T22:53:59.844Z,10.67
2022-11-30T22:56:35.627Z,10.30
2022-11-30T22:59:02.778Z,7.30
2022-11-30T23:01:32.648Z,8.23
2022-11-30T23:04:05.498Z,10.63
2022-11-30T23:06:34.045Z,8.20
2022-11-30T23:09:01.099Z,8.60
2022-11-30T23:11:28.750Z,9.33
2022-11-30T23:13:56.111Z,8.40
2022-11-30T23:16:23.357Z,9.63
2022-11-30T23:18:55.566Z,7.70
2022-11-30T23:21:24.582Z,7.87
2022-11-30T23:23:51.376Z,9.60
2022-11-30T23:26:22.723Z,9.40
2022-11-30T23:28:50.910Z,10.63
2022-11-30T23:31:34.266Z,10.70
2022-11-30T23:34:06.567Z,10.37
2022-11-30T23:36:34.367Z,9.90
2022-11-30T23:39:07.695Z,11.10
2022-11-30T23:41:34.436Z,13.00
2022-11-30T23:44:01.612Z,10.47
2022-11-30T23:46:29.179Z,11.23
2022-11-30T23:48:56.089Z,11.60
2022-11-30T23:51:23.485Z,10.70
2022-11-30T23:53:50.200Z,11.73
2022-11-30T23:56:18.412Z,12.03
2022-11-30T23:58:45.201Z,14.90
